Time;durP1;ratioP1;P1;durP2;ratioP2;P2;SDS_P1;SDS_P2;PMS_P1;PMS_P2;Temp;Humidity;BMP_temperature;BMP_pressure;BME280_temperature;BME280_humidity;BME280_pressure;Samples;Min_cycle;Max_cycle;Signal;HPM_P1;HPM_P2
2022/08/12 00:45:06;;;;;;;3.77;2.80;;;;;;;;;;5059882;28;20216;-69
2022/08/12 00:47:33;;;;;;;2.90;2.63;;;;;;;;;;5066879;28;20209;-69
2022/08/12 00:49:59;;;;;;;3.10;2.80;;;;;;;;;;5059475;28;20272;-70
2022/08/12 00:52:26;;;;;;;3.80;2.63;;;;;;;;;;5064195;28;20181;-69
2022/08/12 00:54:56;;;;;;;5.93;2.97;;;;;;;;;;5059709;28;20315;-69
2022/08/12 00:57:24;;;;;;;3.53;2.70;;;;;;;;;;5063394;28;20205;-69
2022/08/12 00:59:51;;;;;;;5.37;2.43;;;;;;;;;;5069547;28;20185;-69
2022/08/12 01:02:23;;;;;;;4.80;2.70;;;;;;;;;;5066477;28;20202;-69
2022/08/12 01:13:07;;;;;;;3.50;2.60;;;;;;;;;;5065109;28;20193;-69
2022/08/12 01:15:33;;;;;;;6.90;3.03;;;;;;;;;;5054697;28;20217;-70
2022/08/12 01:18:00;;;;;;;2.90;2.60;;;;;;;;;;5061333;28;20212;-69
2022/08/12 01:20:34;;;;;;;8.70;2.90;;;;;;;;;;5063566;28;20673;-70
2022/08/12 01:23:19;;;;;;;3.33;2.60;;;;;;;;;;5055117;28;20651;-69
2022/08/12 01:25:46;;;;;;;3.93;2.90;;;;;;;;;;5069374;28;20236;-70
2022/08/12 01:28:14;;;;;;;3.00;2.73;;;;;;;;;;5062062;28;20232;-70
2022/08/12 01:30:42;;;;;;;4.00;2.70;;;;;;;;;;5064191;28;20639;-69
2022/08/12 01:33:12;;;;;;;4.07;2.70;;;;;;;;;;5068227;28;20187;-69
2022/08/12 01:35:39;;;;;;;6.27;2.53;;;;;;;;;;5068880;28;20283;-69
2022/08/12 01:38:10;;;;;;;2.97;2.77;;;;;;;;;;5066475;28;20177;-69
2022/08/12 01:40:39;;;;;;;2.80;2.60;;;;;;;;;;5067241;28;20205;-69
2022/08/12 01:43:07;;;;;;;3.17;2.60;;;;;;;;;;5060885;28;20182;-69
2022/08/12 01:45:33;;;;;;;3.10;2.70;;;;;;;;;;5067867;28;20744;-69
2022/08/12 01:48:05;;;;;;;4.37;2.23;;;;;;;;;;5063512;28;20658;-69
2022/08/12 01:50:49;;;;;;;6.23;2.70;;;;;;;;;;5069330;28;20271;-69
2022/08/12 01:53:19;;;;;;;2.50;2.30;;;;;;;;;;5056572;28;20541;-69
2022/08/12 01:55:47;;;;;;;6.00;2.50;;;;;;;;;;5069863;28;20200;-70
2022/08/12 01:58:18;;;;;;;4.17;2.50;;;;;;;;;;5069561;28;20247;-69
2022/08/12 02:00:51;;;;;;;6.43;2.60;;;;;;;;;;5070065;28;20205;-69
2022/08/12 02:03:28;;;;;;;3.10;2.63;;;;;;;;;;5062659;28;20211;-69
2022/08/12 02:11:35;;;;;;;2.90;2.10;;;;;;;;;;5061671;28;20197;-70
2022/08/12 02:14:02;;;;;;;3.97;2.60;;;;;;;;;;5051929;28;20201;-70
2022/08/12 02:16:31;;;;;;;4.00;2.73;;;;;;;;;;5070916;28;20205;-70
2022/08/12 02:19:00;;;;;;;3.83;2.20;;;;;;;;;;5070556;28;20187;-70
2022/08/12 02:21:35;;;;;;;3.07;2.40;;;;;;;;;;5056992;28;20206;-70
2022/08/12 02:24:03;;;;;;;3.50;2.70;;;;;;;;;;5055993;28;20173;-70
2022/08/12 02:26:32;;;;;;;3.77;2.60;;;;;;;;;;5064889;28;20291;-70
2022/08/12 02:28:58;;;;;;;2.77;2.40;;;;;;;;;;5070251;28;20598;-70
2022/08/12 02:31:26;;;;;;;3.73;2.37;;;;;;;;;;5053308;28;20243;-70
2022/08/12 02:33:53;;;;;;;3.67;2.53;;;;;;;;;;5066192;28;20243;-70
2022/08/12 02:36:19;;;;;;;3.10;2.40;;;;;;;;;;5065923;28;20208;-70
2022/08/12 02:38:47;;;;;;;3.30;2.40;;;;;;;;;;5068927;28;20267;-69
2022/08/12 02:41:15;;;;;;;3.37;2.70;;;;;;;;;;5059765;28;20558;-70
2022/08/12 02:43:48;;;;;;;2.80;2.60;;;;;;;;;;5064692;28;20186;-70
2022/08/12 02:46:18;;;;;;;4.30;2.50;;;;;;;;;;5067342;28;20205;-70
2022/08/12 02:48:59;;;;;;;5.30;2.70;;;;;;;;;;5061922;28;20205;-70
2022/08/12 02:51:29;;;;;;;3.27;2.40;;;;;;;;;;5051306;28;20206;-70
2022/08/12 02:53:57;;;;;;;2.77;2.50;;;;;;;;;;5063199;28;20693;-70
2022/08/12 02:56:26;;;;;;;3.07;2.60;;;;;;;;;;5069467;28;20305;-70
2022/08/12 02:58:53;;;;;;;3.97;2.70;;;;;;;;;;5058719;28;20186;-69
2022/08/12 03:01:22;;;;;;;2.50;2.23;;;;;;;;;;5066341;28;20284;-70
2022/08/12 03:03:51;;;;;;;3.87;2.23;;;;;;;;;;5050686;28;20178;-69
2022/08/12 03:06:20;;;;;;;2.43;2.23;;;;;;;;;;5067004;28;20204;-70
2022/08/12 03:08:47;;;;;;;3.70;2.63;;;;;;;;;;5070191;28;20234;-70
2022/08/12 03:11:26;;;;;;;3.10;2.40;;;;;;;;;;5053361;28;20679;-69
2022/08/12 03:13:54;;;;;;;3.03;2.40;;;;;;;;;;5064138;28;20183;-70
2022/08/12 03:16:22;;;;;;;2.50;2.30;;;;;;;;;;5061525;28;20676;-70
2022/08/12 03:18:50;;;;;;;4.90;2.87;;;;;;;;;;5065512;28;20188;-70
2022/08/12 03:21:17;;;;;;;4.43;2.77;;;;;;;;;;5070620;28;20216;-70
2022/08/12 03:23:44;;;;;;;3.53;2.47;;;;;;;;;;5062011;28;20238;-70
2022/08/12 03:26:11;;;;;;;2.60;2.40;;;;;;;;;;5064172;28;20284;-69
2022/08/12 03:28:49;;;;;;;2.97;2.43;;;;;;;;;;5057473;28;20178;-70
2022/08/12 03:31:16;;;;;;;4.30;2.77;;;;;;;;;;5069198;28;20231;-70
2022/08/12 03:33:43;;;;;;;3.83;2.70;;;;;;;;;;5068604;28;20800;-70
2022/08/12 03:36:11;;;;;;;2.83;2.53;;;;;;;;;;5063452;28;20288;-70
2022/08/12 03:38:41;;;;;;;2.40;2.20;;;;;;;;;;5063403;28;20255;-70
2022/08/12 04:00:52;;;;;;;3.30;2.30;;;;;;;;;;5058370;28;20262;-70
2022/08/12 04:06:04;;;;;;;2.90;2.27;;;;;;;;;;5072871;28;20200;-70
2022/08/12 04:08:30;;;;;;;3.40;2.53;;;;;;;;;;5063763;28;20189;-69
2022/08/12 04:13:46;;;;;;;4.80;2.40;;;;;;;;;;5065585;28;20188;-70
2022/08/12 04:16:13;;;;;;;2.40;2.20;;;;;;;;;;5072668;28;20720;-70
2022/08/12 04:18:39;;;;;;;4.17;2.30;;;;;;;;;;5071943;28;20189;-69
2022/08/12 04:21:09;;;;;;;3.93;2.30;;;;;;;;;;5057438;28;20213;-70
2022/08/12 04:23:37;;;;;;;3.27;2.17;;;;;;;;;;5068370;28;20201;-69
2022/08/12 04:26:04;;;;;;;2.50;2.27;;;;;;;;;;5073329;28;20237;-69
2022/08/12 04:28:30;;;;;;;3.83;2.73;;;;;;;;;;5067530;28;20181;-69
2022/08/12 04:30:56;;;;;;;2.60;2.40;;;;;;;;;;5063606;28;20211;-70
2022/08/12 04:33:24;;;;;;;2.73;2.53;;;;;;;;;;5072535;28;20185;-70
2022/08/12 04:35:50;;;;;;;4.53;2.80;;;;;;;;;;5073071;28;20205;-70
2022/08/12 04:38:16;;;;;;;2.70;2.50;;;;;;;;;;5072930;28;20181;-70
2022/08/12 04:40:45;;;;;;;2.40;2.23;;;;;;;;;;5070487;28;20213;-70
2022/08/12 04:43:11;;;;;;;2.60;2.40;;;;;;;;;;5072553;28;20650;-69
2022/08/12 04:45:38;;;;;;;3.20;2.60;;;;;;;;;;5072788;28;20205;-69
2022/08/12 04:48:04;;;;;;;3.57;2.50;;;;;;;;;;5072777;28;20173;-69
2022/08/12 04:50:31;;;;;;;4.20;2.20;;;;;;;;;;5070570;28;20577;-69
2022/08/12 04:53:01;;;;;;;3.10;2.60;;;;;;;;;;5072588;28;20519;-70
2022/08/12 04:55:28;;;;;;;2.50;2.30;;;;;;;;;;5072540;28;20212;-70
2022/08/12 04:57:54;;;;;;;3.97;2.67;;;;;;;;;;5072504;28;20176;-69
2022/08/12 05:00:21;;;;;;;3.37;2.40;;;;;;;;;;5065419;28;20651;-70
2022/08/12 05:02:47;;;;;;;4.63;2.63;;;;;;;;;;5071775;28;20188;-70
2022/08/12 05:05:21;;;;;;;2.50;2.30;;;;;;;;;;5072369;28;20183;-69
2022/08/12 05:07:48;;;;;;;3.50;2.50;;;;;;;;;;5072361;28;20256;-70
2022/08/12 05:10:15;;;;;;;2.93;2.60;;;;;;;;;;5071175;28;20652;-69
2022/08/12 05:12:43;;;;;;;2.37;2.17;;;;;;;;;;5065959;28;20246;-69
2022/08/12 05:15:12;;;;;;;3.07;2.70;;;;;;;;;;5057083;28;20194;-69
2022/08/12 05:17:39;;;;;;;4.73;2.60;;;;;;;;;;5053665;28;20189;-69
2022/08/12 05:20:06;;;;;;;3.47;2.43;;;;;;;;;;5059365;28;20231;-70
2022/08/12 05:22:32;;;;;;;2.97;2.57;;;;;;;;;;5060682;28;20194;-70
2022/08/12 05:25:00;;;;;;;2.60;2.40;;;;;;;;;;5058555;28;20193;-73
2022/08/12 05:27:26;;;;;;;2.70;2.27;;;;;;;;;;5058229;28;20251;-71
2022/08/12 05:29:52;;;;;;;3.37;2.40;;;;;;;;;;5059132;28;20648;-72
2022/08/12 05:32:19;;;;;;;3.97;2.67;;;;;;;;;;5068236;28;20230;-70
2022/08/12 05:34:46;;;;;;;5.70;2.50;;;;;;;;;;5069448;28;20559;-70
2022/08/12 05:37:13;;;;;;;4.27;2.70;;;;;;;;;;5055179;28;20205;-70
2022/08/12 05:39:39;;;;;;;4.13;2.80;;;;;;;;;;5056027;28;20259;-70
2022/08/12 05:42:07;;;;;;;2.93;2.63;;;;;;;;;;5069486;28;20295;-70
2022/08/12 05:44:33;;;;;;;3.93;2.27;;;;;;;;;;5063301;28;20325;-70
2022/08/12 05:46:59;;;;;;;3.77;2.30;;;;;;;;;;5065953;28;20224;-70
2022/08/12 05:49:28;;;;;;;3.60;2.50;;;;;;;;;;5063405;28;20542;-70
2022/08/12 05:51:54;;;;;;;4.77;2.60;;;;;;;;;;5070941;28;20619;-70
2022/08/12 05:54:21;;;;;;;2.73;2.53;;;;;;;;;;5071778;28;20249;-75
2022/08/12 05:56:47;;;;;;;2.70;2.50;;;;;;;;;;5071410;28;20292;-73
2022/08/12 05:59:13;;;;;;;3.00;2.70;;;;;;;;;;5061106;28;20185;-73
2022/08/12 06:01:40;;;;;;;3.77;2.33;;;;;;;;;;5065074;28;20201;-73
2022/08/12 06:04:08;;;;;;;4.50;2.60;;;;;;;;;;5069520;28;20196;-72
2022/08/12 06:06:40;;;;;;;3.77;2.57;;;;;;;;;;5067010;28;20206;-73
2022/08/12 06:09:09;;;;;;;3.13;2.37;;;;;;;;;;5062929;28;20186;-73
2022/08/12 06:11:36;;;;;;;3.20;2.60;;;;;;;;;;5063753;28;20193;-72
2022/08/12 06:14:02;;;;;;;2.93;2.60;;;;;;;;;;5071134;28;20177;-72
2022/08/12 06:16:31;;;;;;;2.83;2.63;;;;;;;;;;5063282;28;20201;-73
2022/08/12 06:18:57;;;;;;;3.00;2.80;;;;;;;;;;5064082;28;20220;-73
2022/08/12 06:21:23;;;;;;;3.17;2.60;;;;;;;;;;5064770;28;20390;-73
2022/08/12 06:23:50;;;;;;;2.73;2.40;;;;;;;;;;5063366;28;20174;-73
2022/08/12 06:26:19;;;;;;;3.17;2.50;;;;;;;;;;5064680;28;20207;-72
2022/08/12 06:28:50;;;;;;;3.67;2.60;;;;;;;;;;5064770;28;20181;-72
2022/08/12 06:31:17;;;;;;;3.77;2.73;;;;;;;;;;5065489;28;20679;-73
2022/08/12 06:33:44;;;;;;;4.53;2.60;;;;;;;;;;5064443;28;20189;-73
2022/08/12 06:36:14;;;;;;;3.47;2.63;;;;;;;;;;5063753;28;20220;-72
2022/08/12 06:38:41;;;;;;;2.70;2.50;;;;;;;;;;5064694;28;20192;-73
2022/08/12 06:43:52;;;;;;;3.47;2.50;;;;;;;;;;5065411;28;20185;-73
2022/08/12 06:46:20;;;;;;;2.60;2.40;;;;;;;;;;5063375;28;20679;-74
2022/08/12 06:48:48;;;;;;;3.17;2.60;;;;;;;;;;5062459;28;20562;-73
2022/08/12 06:51:18;;;;;;;4.07;2.50;;;;;;;;;;5065342;28;20184;-72
2022/08/12 06:53:45;;;;;;;3.90;2.90;;;;;;;;;;5065741;28;20551;-73
2022/08/12 06:56:12;;;;;;;2.87;2.20;;;;;;;;;;5055833;28;20270;-74
2022/08/12 06:58:38;;;;;;;5.77;2.77;;;;;;;;;;5061051;28;20185;-73
2022/08/12 07:01:05;;;;;;;5.27;2.90;;;;;;;;;;5067739;28;20545;-73
2022/08/12 07:03:31;;;;;;;2.90;2.30;;;;;;;;;;5064113;28;20193;-72
2022/08/12 07:06:01;;;;;;;3.50;2.60;;;;;;;;;;5063182;28;20709;-73
2022/08/12 07:08:28;;;;;;;4.33;2.60;;;;;;;;;;5063383;28;20232;-73
2022/08/12 07:10:57;;;;;;;3.07;2.70;;;;;;;;;;5061108;28;20207;-73
2022/08/12 07:13:30;;;;;;;2.47;2.20;;;;;;;;;;5066911;28;20658;-73
2022/08/12 07:15:57;;;;;;;2.87;2.30;;;;;;;;;;5069604;28;20205;-73
2022/08/12 07:18:31;;;;;;;3.07;2.30;;;;;;;;;;5065788;28;20847;-73
2022/08/12 07:20:59;;;;;;;4.90;2.43;;;;;;;;;;5066244;28;20197;-73
2022/08/12 07:23:26;;;;;;;2.50;2.30;;;;;;;;;;5068927;28;20285;-73
2022/08/12 07:25:53;;;;;;;3.20;2.30;;;;;;;;;;5068514;28;20200;-73
2022/08/12 07:28:22;;;;;;;3.83;2.40;;;;;;;;;;5068039;28;20269;-73
2022/08/12 07:30:48;;;;;;;4.90;2.53;;;;;;;;;;5065779;28;20196;-73
2022/08/12 07:33:15;;;;;;;4.10;2.27;;;;;;;;;;5061899;28;20268;-72
2022/08/12 07:35:46;;;;;;;2.60;2.40;;;;;;;;;;5063194;28;20203;-73
2022/08/12 07:38:43;;;;;;;3.13;2.40;;;;;;;;;;5068660;28;20224;-73
2022/08/12 07:41:11;;;;;;;2.47;2.27;;;;;;;;;;5075524;28;20219;-73
2022/08/12 07:43:38;;;;;;;4.07;2.63;;;;;;;;;;5073400;28;20201;-73
2022/08/12 07:46:06;;;;;;;3.30;2.40;;;;;;;;;;5073122;28;20603;-76
2022/08/12 07:48:40;;;;;;;3.70;2.70;;;;;;;;;;5094852;28;20216;-80
2022/08/12 07:51:07;;;;;;;5.07;2.40;;;;;;;;;;5067094;28;20193;-76
2022/08/12 07:53:34;;;;;;;2.60;2.40;;;;;;;;;;5080239;28;20238;-75
2022/08/12 07:56:00;;;;;;;2.83;2.27;;;;;;;;;;5087452;28;20300;-74
2022/08/12 07:58:26;;;;;;;4.93;2.43;;;;;;;;;;5070228;28;20173;-74
2022/08/12 08:00:56;;;;;;;2.40;2.20;;;;;;;;;;5060467;28;20223;-74
2022/08/12 08:03:24;;;;;;;3.70;2.40;;;;;;;;;;5061685;28;20220;-74
2022/08/12 08:05:51;;;;;;;3.03;2.50;;;;;;;;;;5062695;28;20211;-74
2022/08/12 08:08:22;;;;;;;2.93;2.53;;;;;;;;;;5076710;28;20186;-74
2022/08/12 08:10:49;;;;;;;4.40;2.37;;;;;;;;;;5067522;28;20249;-74
2022/08/12 08:13:15;;;;;;;4.60;2.40;;;;;;;;;;5079509;28;20176;-74
2022/08/12 08:15:44;;;;;;;3.13;2.27;;;;;;;;;;5082220;28;20263;-74
2022/08/12 08:18:12;;;;;;;3.50;2.30;;;;;;;;;;5070264;28;20590;-73
2022/08/12 08:20:40;;;;;;;4.60;2.17;;;;;;;;;;5084838;28;20255;-75
2022/08/12 08:23:16;;;;;;;3.73;2.10;;;;;;;;;;5078599;28;20185;-77
2022/08/12 08:25:42;;;;;;;2.80;2.20;;;;;;;;;;5073181;28;20802;-75
2022/08/12 08:28:10;;;;;;;3.17;2.43;;;;;;;;;;5082350;28;20206;-77
2022/08/12 08:30:37;;;;;;;2.37;2.10;;;;;;;;;;5079609;28;20655;-76
2022/08/12 08:33:05;;;;;;;3.27;2.40;;;;;;;;;;5075113;28;20617;-74
2022/08/12 08:35:31;;;;;;;4.07;2.37;;;;;;;;;;5085305;28;20598;-75
2022/08/12 08:38:08;;;;;;;2.23;2.03;;;;;;;;;;5085437;28;20532;-71
2022/08/12 08:43:23;;;;;;;2.20;2.00;;;;;;;;;;5086653;28;20181;-71
2022/08/12 08:45:49;;;;;;;2.33;2.13;;;;;;;;;;5069921;28;20201;-71
2022/08/12 08:48:16;;;;;;;3.30;2.17;;;;;;;;;;5069441;28;20185;-71
2022/08/12 08:50:43;;;;;;;2.37;2.17;;;;;;;;;;5072513;28;20180;-71
2022/08/12 08:53:09;;;;;;;3.97;2.17;;;;;;;;;;5088967;28;20646;-71
2022/08/12 08:55:36;;;;;;;3.30;2.20;;;;;;;;;;5072233;28;20203;-71
2022/08/12 08:58:02;;;;;;;3.00;2.10;;;;;;;;;;5071036;28;20181;-71
2022/08/12 09:00:29;;;;;;;2.30;2.10;;;;;;;;;;5069203;28;20186;-71
2022/08/12 09:02:55;;;;;;;3.47;2.03;;;;;;;;;;5070721;28;20547;-71
2022/08/12 09:05:21;;;;;;;3.23;2.10;;;;;;;;;;5071253;28;20212;-71
2022/08/12 09:07:48;;;;;;;2.30;2.00;;;;;;;;;;5071010;28;20177;-79
2022/08/12 09:10:16;;;;;;;5.47;2.33;;;;;;;;;;5066382;28;20177;-69
2022/08/12 09:15:29;;;;;;;2.10;1.90;;;;;;;;;;5069667;28;20248;-70
2022/08/12 09:17:56;;;;;;;3.80;2.37;;;;;;;;;;5069919;28;20540;-70
2022/08/12 09:20:26;;;;;;;2.17;1.90;;;;;;;;;;5070788;28;20203;-70
2022/08/12 09:22:53;;;;;;;4.30;2.20;;;;;;;;;;5069438;28;20257;-71
2022/08/12 09:25:20;;;;;;;5.83;2.07;;;;;;;;;;5067668;28;20237;-69
2022/08/12 09:27:47;;;;;;;5.77;2.10;;;;;;;;;;5066338;28;20196;-72
2022/08/12 09:30:14;;;;;;;3.90;2.20;;;;;;;;;;5068337;28;20220;-73
2022/08/12 09:32:54;;;;;;;3.87;2.20;;;;;;;;;;5069720;28;20562;-73
2022/08/12 09:35:22;;;;;;;2.30;2.10;;;;;;;;;;5069253;28;20184;-78
2022/08/12 09:37:49;;;;;;;5.83;2.27;;;;;;;;;;5065667;28;20200;-73
2022/08/12 09:40:17;;;;;;;4.47;2.10;;;;;;;;;;5068965;28;20186;-73
2022/08/12 09:45:31;;;;;;;3.53;2.20;;;;;;;;;;5070089;28;20567;-77
2022/08/12 09:47:58;;;;;;;2.70;2.30;;;;;;;;;;5069091;28;20186;-72
2022/08/12 09:50:25;;;;;;;2.27;2.10;;;;;;;;;;5068607;28;20253;-74
2022/08/12 09:53:23;;;;;;;2.20;2.00;;;;;;;;;;5068428;28;20195;-74
2022/08/12 09:55:51;;;;;;;2.20;2.00;;;;;;;;;;5053710;28;20563;-73
2022/08/12 09:58:18;;;;;;;2.27;1.93;;;;;;;;;;5056887;28;20217;-72
2022/08/12 10:00:45;;;;;;;3.47;2.03;;;;;;;;;;5058875;28;20187;-74
2022/08/12 10:03:13;;;;;;;2.30;2.10;;;;;;;;;;5053322;28;20195;-73
2022/08/12 10:05:41;;;;;;;4.43;2.07;;;;;;;;;;5060136;28;20193;-74
2022/08/12 10:08:10;;;;;;;2.43;2.00;;;;;;;;;;5069524;28;20185;-73
2022/08/12 10:13:40;;;;;;;2.47;2.00;;;;;;;;;;5061408;28;20235;-74
2022/08/12 10:13:42;;;;;;;1.90;1.80;;;;;;;;;;5057314;28;20195;-74
2022/08/12 10:16:17;;;;;;;2.07;1.77;;;;;;;;;;5059190;28;20208;-73
2022/08/12 10:18:48;;;;;;;2.13;1.93;;;;;;;;;;5059349;28;20251;-74
2022/08/12 10:21:18;;;;;;;2.10;1.87;;;;;;;;;;5050885;28;20212;-74
2022/08/12 10:23:45;;;;;;;3.03;2.20;;;;;;;;;;5050213;28;20647;-74
2022/08/12 10:31:48;;;;;;;3.77;2.00;;;;;;;;;;5061194;28;20189;-74
2022/08/12 10:34:14;;;;;;;5.27;1.90;;;;;;;;;;5057659;28;20189;-76
2022/08/12 10:36:41;;;;;;;2.90;1.90;;;;;;;;;;5055853;28;20694;-76
2022/08/12 10:39:08;;;;;;;4.03;2.10;;;;;;;;;;5055039;28;20186;-78
2022/08/12 10:44:23;;;;;;;2.30;2.10;;;;;;;;;;5054584;28;20272;-73
2022/08/12 10:46:51;;;;;;;2.67;2.00;;;;;;;;;;5064604;28;20245;-74
2022/08/12 10:49:26;;;;;;;4.27;2.30;;;;;;;;;;5065893;28;20682;-74
2022/08/12 10:51:53;;;;;;;2.17;1.93;;;;;;;;;;5058277;28;20250;-76
2022/08/12 10:54:20;;;;;;;5.87;2.17;;;;;;;;;;5059874;28;20185;-73
2022/08/12 10:56:48;;;;;;;2.83;2.33;;;;;;;;;;5056712;28;20221;-73
2022/08/12 10:59:16;;;;;;;3.23;2.00;;;;;;;;;;5064197;28;20645;-73
2022/08/12 11:01:42;;;;;;;5.23;2.20;;;;;;;;;;5070056;28;20209;-73
2022/08/12 11:04:12;;;;;;;3.83;2.10;;;;;;;;;;5059462;28;20260;-73
2022/08/12 11:06:46;;;;;;;2.60;2.27;;;;;;;;;;5058418;28;20644;-73
2022/08/12 11:09:16;;;;;;;3.27;2.20;;;;;;;;;;5065251;28;20185;-73
2022/08/12 11:11:48;;;;;;;3.10;2.03;;;;;;;;;;5063972;28;20258;-74
2022/08/12 11:14:23;;;;;;;2.83;2.00;;;;;;;;;;5069014;28;20659;-74
2022/08/12 11:16:49;;;;;;;2.27;2.07;;;;;;;;;;5066950;28;20196;-73
2022/08/12 11:19:16;;;;;;;2.37;2.17;;;;;;;;;;5068465;28;20593;-74
2022/08/12 11:21:42;;;;;;;3.83;1.93;;;;;;;;;;5065494;28;20987;-74
2022/08/12 11:24:08;;;;;;;2.10;1.80;;;;;;;;;;5067870;28;20177;-74
2022/08/12 11:26:34;;;;;;;4.57;2.00;;;;;;;;;;5064506;28;20201;-74
2022/08/12 11:29:00;;;;;;;4.80;2.03;;;;;;;;;;5065291;28;20617;-74
2022/08/12 11:31:26;;;;;;;2.60;2.00;;;;;;;;;;5064197;28;20197;-74
2022/08/12 11:33:53;;;;;;;4.83;2.13;;;;;;;;;;5064918;28;20578;-73
2022/08/12 11:36:19;;;;;;;2.83;1.80;;;;;;;;;;5065887;28;20266;-73
2022/08/12 11:38:45;;;;;;;2.90;1.90;;;;;;;;;;5069306;28;20257;-78
2022/08/12 11:41:11;;;;;;;2.60;1.87;;;;;;;;;;5067012;28;20220;-72
2022/08/12 11:43:37;;;;;;;2.10;1.90;;;;;;;;;;5063672;28;20206;-72
2022/08/12 11:46:03;;;;;;;3.93;1.90;;;;;;;;;;5065764;28;20258;-72
2022/08/12 11:48:29;;;;;;;3.60;2.13;;;;;;;;;;5066683;28;20205;-72
2022/08/12 11:50:56;;;;;;;2.60;2.20;;;;;;;;;;5066272;28;20178;-72
2022/08/12 11:53:22;;;;;;;4.53;2.20;;;;;;;;;;5066364;28;20180;-72
2022/08/12 11:55:48;;;;;;;2.23;2.00;;;;;;;;;;5067027;28;20197;-72
2022/08/12 11:58:15;;;;;;;1.83;1.73;;;;;;;;;;5070329;28;20184;-72
2022/08/12 12:00:41;;;;;;;2.60;1.90;;;;;;;;;;5071011;28;20260;-73
2022/08/12 12:03:07;;;;;;;3.93;2.10;;;;;;;;;;5071037;28;20223;-72
2022/08/12 12:05:33;;;;;;;3.80;1.87;;;;;;;;;;5068883;28;20744;-71
2022/08/12 12:07:59;;;;;;;4.17;1.97;;;;;;;;;;5069864;28;20203;-72
2022/08/12 12:10:26;;;;;;;1.70;1.60;;;;;;;;;;5070216;28;20195;-74
2022/08/12 12:12:52;;;;;;;1.90;1.80;;;;;;;;;;5071227;28;20206;-72
2022/08/12 12:15:18;;;;;;;2.17;1.83;;;;;;;;;;5070867;28;20195;-73
2022/08/12 12:17:44;;;;;;;4.93;2.00;;;;;;;;;;5067563;28;20184;-72
2022/08/12 12:20:11;;;;;;;3.87;1.90;;;;;;;;;;5065168;28;20277;-73
2022/08/12 12:22:39;;;;;;;3.20;2.00;;;;;;;;;;5071231;28;20211;-72
2022/08/12 12:25:06;;;;;;;2.17;1.93;;;;;;;;;;5068067;28;20180;-72
2022/08/12 12:27:45;;;;;;;2.80;1.80;;;;;;;;;;5069081;28;20586;-73
2022/08/12 12:30:12;;;;;;;2.00;1.80;;;;;;;;;;5070506;28;20590;-72
2022/08/12 12:32:38;;;;;;;4.37;1.90;;;;;;;;;;5062236;28;20205;-73
2022/08/12 12:35:04;;;;;;;1.90;1.80;;;;;;;;;;5057699;28;20183;-74
2022/08/12 12:37:30;;;;;;;1.90;1.80;;;;;;;;;;5055052;28;20203;-75
2022/08/12 12:39:57;;;;;;;2.20;1.83;;;;;;;;;;5072041;28;20194;-75
2022/08/12 12:42:23;;;;;;;2.17;1.97;;;;;;;;;;5065656;28;20572;-74
2022/08/12 12:44:49;;;;;;;1.93;1.83;;;;;;;;;;5069421;28;20187;-75
2022/08/12 12:47:15;;;;;;;5.67;1.63;;;;;;;;;;5056859;28;20205;-74
2022/08/12 12:49:42;;;;;;;2.83;1.47;;;;;;;;;;5069704;28;20169;-74
2022/08/12 12:52:08;;;;;;;2.13;1.50;;;;;;;;;;5071498;28;20652;-74
2022/08/12 12:54:34;;;;;;;2.40;1.70;;;;;;;;;;5069851;28;20197;-74
2022/08/12 12:57:00;;;;;;;1.90;1.60;;;;;;;;;;5059559;28;20213;-74
2022/08/12 12:59:27;;;;;;;2.83;1.80;;;;;;;;;;5060124;28;20185;-75
2022/08/12 13:01:54;;;;;;;5.00;1.80;;;;;;;;;;5063904;28;20287;-77
2022/08/12 13:04:20;;;;;;;2.13;1.70;;;;;;;;;;5059134;28;20268;-75
2022/08/12 13:06:50;;;;;;;2.20;1.67;;;;;;;;;;5059603;28;20576;-75
2022/08/12 13:09:17;;;;;;;1.90;1.40;;;;;;;;;;5062279;28;20186;-75
2022/08/12 13:11:43;;;;;;;2.57;1.60;;;;;;;;;;5063716;28;20897;-74
2022/08/12 13:14:10;;;;;;;2.50;1.50;;;;;;;;;;5055846;28;20182;-74
2022/08/12 13:16:37;;;;;;;2.67;1.60;;;;;;;;;;5057754;28;20206;-74
2022/08/12 13:19:03;;;;;;;5.63;1.70;;;;;;;;;;5059499;28;20669;-74
2022/08/12 13:21:29;;;;;;;3.07;1.50;;;;;;;;;;5051680;28;20715;-73
2022/08/12 13:23:56;;;;;;;1.83;1.50;;;;;;;;;;5059272;28;20567;-74
2022/08/12 13:26:22;;;;;;;2.40;1.70;;;;;;;;;;5062575;28;20214;-74
2022/08/12 13:28:52;;;;;;;1.50;1.40;;;;;;;;;;5055746;28;20178;-73
2022/08/12 13:31:20;;;;;;;2.77;1.50;;;;;;;;;;5058880;28;20200;-74
2022/08/12 13:33:50;;;;;;;9.13;1.70;;;;;;;;;;5056657;28;20190;-74
2022/08/12 13:39:04;;;;;;;2.10;1.50;;;;;;;;;;5048991;28;20308;-77
2022/08/12 13:41:34;;;;;;;3.00;1.63;;;;;;;;;;5047470;28;20214;-75
2022/08/12 13:44:01;;;;;;;1.90;1.40;;;;;;;;;;5049271;28;20184;-75
2022/08/12 13:46:28;;;;;;;3.30;1.43;;;;;;;;;;5057932;28;20569;-75
2022/08/12 13:48:55;;;;;;;1.63;1.40;;;;;;;;;;5050647;28;20179;-75
2022/08/12 13:51:22;;;;;;;1.67;1.40;;;;;;;;;;5050752;28;20239;-76
2022/08/12 13:53:49;;;;;;;2.30;1.30;;;;;;;;;;5051325;28;20188;-75
2022/08/12 13:56:15;;;;;;;1.60;1.30;;;;;;;;;;5049870;28;20211;-76
2022/08/12 13:58:45;;;;;;;2.25;1.55;;;;;;;;;;5051150;28;20683;-75
2022/08/12 14:01:11;;;;;;;2.30;1.40;;;;;;;;;;5056319;28;20268;-76
2022/08/12 14:03:37;;;;;;;1.35;1.10;;;;;;;;;;5063236;28;20276;-75
2022/08/12 14:06:04;;;;;;;2.25;1.48;;;;;;;;;;5055657;28;20209;-76
2022/08/12 14:08:30;;;;;;;1.00;1.00;;;;;;;;;;5054218;28;20533;-75
2022/08/12 14:10:56;;;;;;;2.55;1.30;;;;;;;;;;5068110;28;20191;-76
2022/08/12 14:13:25;;;;;;;2.17;1.33;;;;;;;;;;5052103;28;20177;-75
2022/08/12 14:15:53;;;;;;;1.38;1.25;;;;;;;;;;5050624;28;20288;-75
2022/08/12 14:18:21;;;;;;;1.77;1.67;;;;;;;;;;5050614;28;20225;-75
2022/08/12 14:20:51;;;;;;;1.20;1.10;;;;;;;;;;5048103;28;20183;-75
2022/08/12 14:23:18;;;;;;;1.30;1.20;;;;;;;;;;5056337;28;20210;-75
2022/08/12 14:25:46;;;;;;;2.95;1.63;;;;;;;;;;5053657;28;20261;-75
2022/08/12 14:28:15;;;;;;;1.35;1.20;;;;;;;;;;5053611;28;20379;-75
2022/08/12 14:30:52;;;;;;;2.80;1.20;;;;;;;;;;5048545;28;20184;-75
2022/08/12 14:33:25;;;;;;;3.60;1.40;;;;;;;;;;5046601;28;20618;-75
2022/08/12 14:35:52;;;;;;;1.97;1.60;;;;;;;;;;5055448;28;20278;-75
2022/08/12 14:38:22;;;;;;;2.30;1.70;;;;;;;;;;5049098;28;20200;-75
2022/08/12 14:40:51;;;;;;;2.63;1.40;;;;;;;;;;5057760;28;20335;-76
2022/08/12 14:43:18;;;;;;;1.50;1.40;;;;;;;;;;5047973;28;20659;-76
2022/08/12 14:45:45;;;;;;;2.33;1.40;;;;;;;;;;5040327;28;20706;-76
2022/08/12 14:48:12;;;;;;;2.67;1.50;;;;;;;;;;5047560;28;20185;-78
2022/08/12 14:50:38;;;;;;;1.50;1.37;;;;;;;;;;5052860;28;20181;-76
2022/08/12 14:53:09;;;;;;;2.80;1.63;;;;;;;;;;5048816;28;20198;-76
2022/08/12 14:55:37;;;;;;;4.97;1.40;;;;;;;;;;5049465;28;20213;-76
2022/08/12 14:58:03;;;;;;;1.77;1.30;;;;;;;;;;5050182;28;20351;-76
2022/08/12 15:03:15;;;;;;;2.97;1.30;;;;;;;;;;5048542;28;20202;-76
2022/08/12 15:05:42;;;;;;;1.33;1.23;;;;;;;;;;5051292;28;20202;-73
2022/08/12 15:08:10;;;;;;;4.13;1.50;;;;;;;;;;5049735;28;20265;-72
2022/08/12 15:10:45;;;;;;;1.70;1.40;;;;;;;;;;5048959;28;20235;-73
2022/08/12 15:13:11;;;;;;;3.53;1.30;;;;;;;;;;5049282;28;20183;-74
2022/08/12 15:15:42;;;;;;;2.10;1.37;;;;;;;;;;5045494;28;20241;-76
2022/08/12 15:18:08;;;;;;;1.83;1.30;;;;;;;;;;5055954;28;20184;-75
2022/08/12 15:20:35;;;;;;;2.03;1.37;;;;;;;;;;5048342;28;20668;-74
2022/08/12 15:23:01;;;;;;;2.40;1.60;;;;;;;;;;5046244;28;20740;-74
2022/08/12 15:25:28;;;;;;;2.70;1.30;;;;;;;;;;5046118;28;20631;-74
2022/08/12 15:27:55;;;;;;;3.30;1.20;;;;;;;;;;5049139;28;20519;-74
2022/08/12 15:30:23;;;;;;;3.07;1.40;;;;;;;;;;5046894;28;20704;-74
2022/08/12 15:32:52;;;;;;;1.63;1.40;;;;;;;;;;5046105;28;20190;-74
2022/08/12 15:35:19;;;;;;;3.20;1.43;;;;;;;;;;5053805;28;20651;-73
2022/08/12 15:37:55;;;;;;;1.40;1.30;;;;;;;;;;5053043;28;20215;-75
2022/08/12 15:40:25;;;;;;;4.33;1.43;;;;;;;;;;5053692;28;20242;-71
2022/08/12 15:42:53;;;;;;;3.10;1.40;;;;;;;;;;5052092;28;20254;-74
2022/08/12 15:45:19;;;;;;;1.90;1.40;;;;;;;;;;5052828;28;20691;-75
2022/08/12 15:47:46;;;;;;;1.47;1.37;;;;;;;;;;5054544;28;20184;-75
2022/08/12 15:50:12;;;;;;;1.57;1.47;;;;;;;;;;5047225;28;20650;-75
2022/08/12 15:52:38;;;;;;;3.93;1.50;;;;;;;;;;5051844;28;20173;-75
2022/08/12 15:55:07;;;;;;;2.20;1.43;;;;;;;;;;5052603;28;20224;-75
2022/08/12 15:57:33;;;;;;;3.03;1.70;;;;;;;;;;5052943;28;20185;-74
2022/08/12 15:59:59;;;;;;;1.67;1.40;;;;;;;;;;5053370;28;20662;-75
2022/08/12 16:02:26;;;;;;;1.50;1.40;;;;;;;;;;5067098;28;20788;-74
2022/08/12 16:04:52;;;;;;;4.27;1.70;;;;;;;;;;5057816;28;20282;-75
2022/08/12 16:07:23;;;;;;;1.67;1.57;;;;;;;;;;5052873;28;20642;-74
2022/08/12 16:09:49;;;;;;;1.70;1.60;;;;;;;;;;5051986;28;20284;-74
2022/08/12 16:12:15;;;;;;;2.70;1.70;;;;;;;;;;5043299;28;20280;-74
2022/08/12 16:14:41;;;;;;;1.83;1.60;;;;;;;;;;5046871;28;20201;-74
2022/08/12 16:17:08;;;;;;;3.67;1.43;;;;;;;;;;5049173;28;20209;-74
2022/08/12 16:19:36;;;;;;;4.10;1.63;;;;;;;;;;5050567;28;20555;-73
2022/08/12 16:22:02;;;;;;;1.97;1.47;;;;;;;;;;5049205;28;20750;-75
2022/08/12 16:24:28;;;;;;;1.90;1.40;;;;;;;;;;5042614;28;20171;-74
2022/08/12 16:26:54;;;;;;;4.93;1.60;;;;;;;;;;5055955;28;20193;-74
2022/08/12 16:29:32;;;;;;;3.50;1.57;;;;;;;;;;5057879;28;20276;-74
2022/08/12 16:31:58;;;;;;;2.77;1.60;;;;;;;;;;5053771;28;20678;-74
2022/08/12 16:34:24;;;;;;;3.20;1.67;;;;;;;;;;5066583;28;20668;-74
2022/08/12 16:36:51;;;;;;;2.47;1.63;;;;;;;;;;5070510;28;20589;-74